Time;durP1;ratioP1;P1;durP2;ratioP2;P2;SDS_P1;SDS_P2;PMS_P1;PMS_P2;Temp;Humidity;BMP_temperature;BMP_pressure;BME280_temperature;BME280_humidity;BME280_pressure;Samples;Min_cycle;Max_cycle;Signal;HPM_P1;HPM_P2
2021/12/21 00:02:13;;;;;;;6.85;2.70;;;;;;;;;;5092955;28;20490;-74
2021/12/21 00:04:39;;;;;;;5.35;2.42;;;;;;;;;;5092845;28;20604;-74
2021/12/21 00:07:06;;;;;;;5.65;2.67;;;;;;;;;;5092859;28;20083;-74
2021/12/21 00:09:32;;;;;;;4.43;2.40;;;;;;;;;;5091353;28;20059;-74
2021/12/21 00:12:00;;;;;;;7.53;2.75;;;;;;;;;;5073780;28;20048;-74
2021/12/21 00:14:39;;;;;;;10.98;2.90;;;;;;;;;;5092406;28;20490;-73
2021/12/21 00:17:29;;;;;;;5.05;2.72;;;;;;;;;;5092514;28;20051;-73
2021/12/21 00:20:12;;;;;;;6.43;2.45;;;;;;;;;;5091550;28;20052;-74
2021/12/21 00:25:10;;;;;;;4.97;2.42;;;;;;;;;;5092331;28;20546;-74
2021/12/21 00:27:36;;;;;;;4.55;2.53;;;;;;;;;;5092388;28;20163;-74
2021/12/21 00:30:04;;;;;;;8.80;2.50;;;;;;;;;;5092488;28;20047;-75
2021/12/21 00:32:30;;;;;;;4.13;2.30;;;;;;;;;;5091841;28;20509;-75
2021/12/21 00:34:56;;;;;;;5.57;2.83;;;;;;;;;;5092193;28;20406;-75
2021/12/21 00:37:23;;;;;;;4.90;2.25;;;;;;;;;;5092211;28;20078;-75
2021/12/21 00:39:49;;;;;;;5.75;2.50;;;;;;;;;;5091918;28;20533;-74
2021/12/21 00:42:15;;;;;;;5.15;2.60;;;;;;;;;;5090711;28;20486;-73
2021/12/21 00:44:41;;;;;;;5.43;2.30;;;;;;;;;;5091780;28;20508;-74
2021/12/21 00:47:07;;;;;;;5.03;2.58;;;;;;;;;;5090820;28;20052;-73
2021/12/21 00:49:35;;;;;;;4.47;2.45;;;;;;;;;;5091728;28;20044;-74
2021/12/21 00:52:01;;;;;;;5.43;2.38;;;;;;;;;;5091420;28;20110;-73
2021/12/21 00:54:27;;;;;;;4.93;2.28;;;;;;;;;;5091739;28;20087;-74
2021/12/21 00:56:53;;;;;;;4.03;2.47;;;;;;;;;;5091421;28;20051;-74
2021/12/21 00:59:19;;;;;;;4.60;2.50;;;;;;;;;;5091721;28;20608;-74
2021/12/21 01:01:46;;;;;;;4.95;2.28;;;;;;;;;;5091166;28;20052;-74
2021/12/21 01:04:21;;;;;;;5.40;2.60;;;;;;;;;;5091177;28;20044;-74
2021/12/21 01:07:02;;;;;;;5.30;2.40;;;;;;;;;;5091310;28;20086;-73
2021/12/21 01:12:02;;;;;;;5.38;2.33;;;;;;;;;;5091088;28;20512;-74
2021/12/21 01:17:08;;;;;;;4.55;2.50;;;;;;;;;;5090427;28;20125;-73
2021/12/21 01:19:39;;;;;;;4.60;2.50;;;;;;;;;;5091461;28;20044;-73
2021/12/21 01:22:29;;;;;;;4.68;2.50;;;;;;;;;;5091297;28;20087;-70
2021/12/21 01:25:13;;;;;;;;;;;;;;;;;;5091797;28;20044;-71
2021/12/21 01:35:36;;;;;;;4.40;2.50;;;;;;;;;;5090203;28;20084;-73
2021/12/21 01:38:11;;;;;;;7.82;2.70;;;;;;;;;;5089756;28;20051;-73
2021/12/21 01:40:47;;;;;;;8.00;3.00;;;;;;;;;;5090825;28;20117;-74
2021/12/21 01:43:21;;;;;;;4.63;2.70;;;;;;;;;;5089326;28;20055;-73
2021/12/21 01:51:17;;;;;;;4.40;2.35;;;;;;;;;;5090954;28;20442;-73
2021/12/21 01:53:43;;;;;;;5.43;2.58;;;;;;;;;;5090218;28;20055;-73
2021/12/21 01:56:10;;;;;;;5.60;2.45;;;;;;;;;;5090678;28;20093;-73
2021/12/21 01:58:37;;;;;;;3.83;2.25;;;;;;;;;;5090516;28;20040;-73
2021/12/21 02:01:07;;;;;;;6.45;2.63;;;;;;;;;;5090476;28;20117;-73
2021/12/21 02:03:33;;;;;;;4.80;2.67;;;;;;;;;;5090093;28;20044;-73
2021/12/21 02:05:59;;;;;;;4.93;2.42;;;;;;;;;;5089427;28;20058;-73
2021/12/21 02:08:28;;;;;;;5.03;2.67;;;;;;;;;;5090322;28;20055;-74
2021/12/21 02:10:59;;;;;;;5.82;2.83;;;;;;;;;;5088886;28;20056;-74
2021/12/21 02:13:30;;;;;;;6.40;2.72;;;;;;;;;;5089090;28;20063;-74
2021/12/21 02:15:56;;;;;;;4.80;2.90;;;;;;;;;;5089381;28;20484;-74
2021/12/21 02:21:20;;;;;;;5.57;2.88;;;;;;;;;;5090205;28;20437;-75
2021/12/21 02:23:48;;;;;;;4.30;2.50;;;;;;;;;;5088829;28;20055;-75
2021/12/21 02:31:09;;;;;;;6.32;2.50;;;;;;;;;;5089979;28;20044;-73
2021/12/21 02:33:36;;;;;;;4.63;2.38;;;;;;;;;;5090083;28;20048;-74
2021/12/21 02:36:02;;;;;;;3.75;2.45;;;;;;;;;;5090088;28;20048;-74
2021/12/21 02:38:29;;;;;;;5.50;2.50;;;;;;;;;;5089356;28;20050;-74
2021/12/21 02:40:55;;;;;;;4.75;2.42;;;;;;;;;;5089891;28;20189;-74
2021/12/21 02:43:22;;;;;;;5.70;2.40;;;;;;;;;;5088700;28;20047;-74
2021/12/21 02:45:48;;;;;;;6.00;2.70;;;;;;;;;;5088482;28;20044;-74
2021/12/21 02:48:14;;;;;;;6.07;2.47;;;;;;;;;;5089657;28;20140;-73
2021/12/21 02:50:41;;;;;;;5.60;2.58;;;;;;;;;;5089097;28;20157;-74
2021/12/21 02:53:08;;;;;;;4.90;2.22;;;;;;;;;;5089691;28;20055;-74
2021/12/21 02:55:34;;;;;;;7.65;2.35;;;;;;;;;;5088491;28;20066;-74
2021/12/21 02:58:00;;;;;;;5.88;2.38;;;;;;;;;;5089604;28;20181;-74
2021/12/21 03:00:27;;;;;;;3.75;2.00;;;;;;;;;;5087952;28;20051;-74
2021/12/21 03:02:54;;;;;;;4.93;2.40;;;;;;;;;;5088480;28;20127;-74
2021/12/21 03:05:20;;;;;;;5.25;2.30;;;;;;;;;;5089589;28;20070;-74
2021/12/21 03:10:31;;;;;;;5.03;2.30;;;;;;;;;;5089309;28;20067;-74
2021/12/21 03:15:41;;;;;;;5.38;2.47;;;;;;;;;;5089604;28;20524;-74
2021/12/21 03:18:07;;;;;;;3.67;2.00;;;;;;;;;;5088956;28;20568;-76
2021/12/21 03:20:34;;;;;;;3.95;2.30;;;;;;;;;;5089151;28;20098;-76
2021/12/21 03:23:00;;;;;;;3.53;2.03;;;;;;;;;;5088599;28;20418;-76
2021/12/21 03:25:26;;;;;;;5.03;2.13;;;;;;;;;;5095322;28;20071;-76
2021/12/21 03:27:52;;;;;;;4.80;2.40;;;;;;;;;;5095159;28;20051;-76
2021/12/21 03:30:18;;;;;;;5.85;2.15;;;;;;;;;;5077101;28;20075;-76
2021/12/21 03:32:44;;;;;;;4.30;2.45;;;;;;;;;;5094270;28;20100;-76
2021/12/21 03:35:10;;;;;;;4.82;2.20;;;;;;;;;;5094388;28;20152;-76
2021/12/21 03:37:36;;;;;;;7.43;2.60;;;;;;;;;;5094946;28;20044;-76
2021/12/21 03:40:03;;;;;;;5.40;2.50;;;;;;;;;;5094009;28;20157;-74
2021/12/21 03:42:29;;;;;;;6.30;2.30;;;;;;;;;;5095188;28;20044;-75
2021/12/21 03:44:56;;;;;;;6.13;3.10;;;;;;;;;;5095035;28;20058;-76
2021/12/21 03:47:23;;;;;;;7.15;2.65;;;;;;;;;;5096069;28;20050;-76
2021/12/21 03:52:19;;;;;;;5.53;2.65;;;;;;;;;;5095839;28;20138;-76
2021/12/21 03:54:47;;;;;;;7.90;2.55;;;;;;;;;;5095436;28;20109;-76
2021/12/21 03:57:14;;;;;;;6.18;2.53;;;;;;;;;;5095570;28;20047;-75
2021/12/21 03:59:44;;;;;;;4.38;2.28;;;;;;;;;;5095741;28;20048;-75
2021/12/21 04:02:11;;;;;;;5.90;2.47;;;;;;;;;;5094232;28;20551;-75
2021/12/21 04:04:38;;;;;;;4.13;2.35;;;;;;;;;;5094007;28;20063;-75
2021/12/21 04:07:05;;;;;;;6.60;2.67;;;;;;;;;;5095586;28;20497;-75
2021/12/21 04:09:31;;;;;;;6.57;3.80;;;;;;;;;;5095701;28;20062;-75
2021/12/21 04:11:57;;;;;;;6.20;2.60;;;;;;;;;;5094057;28;20051;-75
2021/12/21 04:14:23;;;;;;;4.22;2.08;;;;;;;;;;5095425;28;20082;-75
2021/12/21 04:16:51;;;;;;;3.97;2.35;;;;;;;;;;5095683;28;20043;-75
2021/12/21 04:19:18;;;;;;;6.05;2.60;;;;;;;;;;5094791;28;20503;-75
2021/12/21 04:21:44;;;;;;;5.45;2.50;;;;;;;;;;5077740;28;20105;-75
2021/12/21 04:24:10;;;;;;;4.30;2.15;;;;;;;;;;5095559;28;20119;-75
2021/12/21 04:26:37;;;;;;;3.90;2.20;;;;;;;;;;5094163;28;20097;-75
2021/12/21 04:29:03;;;;;;;4.75;2.50;;;;;;;;;;5095038;28;20043;-75
2021/12/21 04:31:29;;;;;;;4.10;2.47;;;;;;;;;;5095044;28;20044;-75
2021/12/21 04:33:55;;;;;;;4.55;2.45;;;;;;;;;;5095376;28;20048;-75
2021/12/21 04:36:21;;;;;;;4.35;2.22;;;;;;;;;;5091530;28;20040;-75
2021/12/21 04:38:50;;;;;;;4.85;2.58;;;;;;;;;;5074019;28;20048;-74
2021/12/21 04:41:27;;;;;;;3.90;2.17;;;;;;;;;;5091004;28;20083;-74
2021/12/21 04:43:55;;;;;;;3.90;2.05;;;;;;;;;;5091378;28;20120;-75
2021/12/21 04:46:21;;;;;;;4.85;2.70;;;;;;;;;;5090981;28;20040;-75
2021/12/21 04:48:47;;;;;;;4.03;2.05;;;;;;;;;;5091232;28;20405;-74
2021/12/21 04:51:13;;;;;;;4.30;2.20;;;;;;;;;;5092059;28;20043;-75
2021/12/21 04:53:40;;;;;;;4.82;2.15;;;;;;;;;;5090584;28;20129;-77
2021/12/21 04:56:06;;;;;;;5.93;1.90;;;;;;;;;;5073550;28;20052;-77
2021/12/21 04:58:32;;;;;;;5.22;2.22;;;;;;;;;;5090501;28;20044;-76
2021/12/21 05:00:58;;;;;;;5.22;2.40;;;;;;;;;;5091776;28;20055;-76
2021/12/21 05:03:24;;;;;;;6.63;2.22;;;;;;;;;;5092122;28;20048;-77
2021/12/21 05:05:51;;;;;;;5.90;1.80;;;;;;;;;;5090909;28;20422;-76
2021/12/21 05:08:26;;;;;;;4.40;1.90;;;;;;;;;;5091629;28;20044;-77
2021/12/21 05:10:57;;;;;;;4.22;1.88;;;;;;;;;;5091184;28;20060;-77
2021/12/21 05:13:25;;;;;;;3.85;1.98;;;;;;;;;;5091573;28;20060;-76
2021/12/21 05:15:51;;;;;;;4.38;1.90;;;;;;;;;;5091273;28;20375;-77
2021/12/21 05:18:17;;;;;;;3.97;2.08;;;;;;;;;;5090081;28;20536;-76
2021/12/21 05:20:44;;;;;;;3.05;1.88;;;;;;;;;;5089268;28;20470;-76
2021/12/21 05:23:10;;;;;;;3.97;1.65;;;;;;;;;;5090748;28;20044;-76
2021/12/21 05:25:37;;;;;;;3.53;1.90;;;;;;;;;;5090748;28;20044;-76
2021/12/21 05:28:04;;;;;;;4.75;2.10;;;;;;;;;;5090588;28;20079;-76
2021/12/21 05:30:30;;;;;;;4.10;1.98;;;;;;;;;;5090331;28;20122;-76
2021/12/21 05:32:56;;;;;;;4.53;2.13;;;;;;;;;;5090311;28;20077;-74
2021/12/21 05:35:25;;;;;;;3.58;2.10;;;;;;;;;;5090522;28;20084;-74
2021/12/21 05:37:54;;;;;;;5.80;2.50;;;;;;;;;;5089312;28;20054;-75
2021/12/21 05:40:20;;;;;;;3.83;2.10;;;;;;;;;;5090222;28;20312;-75
2021/12/21 05:42:47;;;;;;;3.22;2.00;;;;;;;;;;5090677;28;20274;-75
2021/12/21 05:45:15;;;;;;;4.40;2.13;;;;;;;;;;5090091;28;20334;-74
2021/12/21 05:47:41;;;;;;;4.22;2.15;;;;;;;;;;5090048;28;20044;-74
2021/12/21 05:50:09;;;;;;;4.60;2.03;;;;;;;;;;5088926;28;20071;-75
2021/12/21 05:52:35;;;;;;;4.05;1.90;;;;;;;;;;5090072;28;20483;-75
2021/12/21 05:55:02;;;;;;;3.20;1.88;;;;;;;;;;5088375;28;20079;-76
2021/12/21 05:57:28;;;;;;;4.10;2.40;;;;;;;;;;5088850;28;20044;-76
2021/12/21 05:59:54;;;;;;;3.33;1.90;;;;;;;;;;5088887;28;20048;-76
2021/12/21 06:02:21;;;;;;;5.07;1.80;;;;;;;;;;5090106;28;20391;-76
2021/12/21 06:04:47;;;;;;;4.57;2.10;;;;;;;;;;5089538;28;20164;-76
2021/12/21 06:07:13;;;;;;;4.05;2.15;;;;;;;;;;5088343;28;20789;-76
2021/12/21 06:09:41;;;;;;;2.65;1.77;;;;;;;;;;5088173;28;20082;-76
2021/12/21 06:12:17;;;;;;;3.78;1.80;;;;;;;;;;5089658;28;20516;-75
2021/12/21 06:15:18;;;;;;;3.13;1.88;;;;;;;;;;5089697;28;20071;-76
2021/12/21 06:25:59;;;;;;;7.50;2.20;;;;;;;;;;5089014;28;20147;-74
2021/12/21 06:28:25;;;;;;;9.30;2.53;;;;;;;;;;5088021;28;20040;-73
2021/12/21 06:30:51;;;;;;;5.68;2.50;;;;;;;;;;5089461;28;20055;-74
2021/12/21 06:33:17;;;;;;;5.65;2.22;;;;;;;;;;5089487;28;20482;-74
2021/12/21 06:35:44;;;;;;;4.53;2.15;;;;;;;;;;5088871;28;20039;-75
2021/12/21 06:38:10;;;;;;;7.13;2.13;;;;;;;;;;5089081;28;20675;-74
2021/12/21 06:40:36;;;;;;;4.38;1.88;;;;;;;;;;5087936;28;20414;-73
2021/12/21 06:43:03;;;;;;;6.88;2.15;;;;;;;;;;5089153;28;20182;-75
2021/12/21 06:53:27;;;;;;;9.10;2.50;;;;;;;;;;5088926;28;20433;-75
2021/12/21 06:55:53;;;;;;;8.75;2.25;;;;;;;;;;5089025;28;20044;-73
2021/12/21 06:58:19;;;;;;;7.13;2.03;;;;;;;;;;5086795;28;20044;-73
2021/12/21 07:00:46;;;;;;;6.57;2.30;;;;;;;;;;5087637;28;20489;-73
2021/12/21 07:03:13;;;;;;;5.57;1.95;;;;;;;;;;5089302;28;20044;-75
2021/12/21 07:05:40;;;;;;;4.95;2.00;;;;;;;;;;5087654;28;20450;-74
2021/12/21 07:08:11;;;;;;;3.55;1.90;;;;;;;;;;5088021;28;20404;-74
2021/12/21 07:10:39;;;;;;;5.70;2.17;;;;;;;;;;5088954;28;20131;-74
2021/12/21 07:18:35;;;;;;;4.32;2.10;;;;;;;;;;5088760;28;20048;-74
2021/12/21 07:21:02;;;;;;;5.05;2.10;;;;;;;;;;5088325;28;20117;-74
2021/12/21 07:23:30;;;;;;;5.07;2.08;;;;;;;;;;5088313;28;20044;-74
2021/12/21 07:25:56;;;;;;;5.82;1.90;;;;;;;;;;5088939;28;20054;-74
2021/12/21 07:28:22;;;;;;;5.18;2.05;;;;;;;;;;5088358;28;20051;-74
2021/12/21 07:30:48;;;;;;;3.92;1.98;;;;;;;;;;5070761;28;20060;-74
2021/12/21 07:33:15;;;;;;;3.72;1.77;;;;;;;;;;5087169;28;20467;-74
2021/12/21 07:35:41;;;;;;;3.95;2.08;;;;;;;;;;5087847;28;20101;-74
2021/12/21 07:38:07;;;;;;;5.18;2.30;;;;;;;;;;5087384;28;20484;-74
2021/12/21 07:40:33;;;;;;;4.72;2.15;;;;;;;;;;5088347;28;20044;-74
2021/12/21 07:43:00;;;;;;;7.50;3.03;;;;;;;;;;5086591;28;20040;-74
2021/12/21 07:45:27;;;;;;;5.35;2.10;;;;;;;;;;5088014;28;20068;-74
2021/12/21 07:47:53;;;;;;;3.53;2.00;;;;;;;;;;5087164;28;20076;-73
2021/12/21 07:50:20;;;;;;;3.70;1.85;;;;;;;;;;5087133;28;20052;-73
2021/12/21 07:52:46;;;;;;;4.20;1.95;;;;;;;;;;5087677;28;20044;-74
2021/12/21 07:55:12;;;;;;;4.80;2.00;;;;;;;;;;5087281;28;20048;-74
2021/12/21 07:57:38;;;;;;;4.72;2.30;;;;;;;;;;5088125;28;20044;-73
2021/12/21 08:00:05;;;;;;;4.18;2.00;;;;;;;;;;5088379;28;20052;-73
2021/12/21 08:02:32;;;;;;;3.15;1.70;;;;;;;;;;5088462;28;20116;-72
2021/12/21 08:04:58;;;;;;;6.05;2.10;;;;;;;;;;5088732;28;20090;-75
2021/12/21 08:07:31;;;;;;;10.35;2.13;;;;;;;;;;5087699;28;20048;-73
2021/12/21 08:09:58;;;;;;;4.63;1.92;;;;;;;;;;5088372;28;20113;-72
2021/12/21 08:12:25;;;;;;;9.20;2.40;;;;;;;;;;5091755;28;20091;-74
2021/12/21 08:14:52;;;;;;;6.50;2.10;;;;;;;;;;5092254;28;20048;-72
2021/12/21 08:17:18;;;;;;;4.65;2.05;;;;;;;;;;5092370;28;20127;-72
2021/12/21 08:19:45;;;;;;;6.35;1.92;;;;;;;;;;5090633;28;20050;-72
2021/12/21 08:22:12;;;;;;;10.93;1.95;;;;;;;;;;5091789;28;20048;-71
2021/12/21 08:24:38;;;;;;;3.45;1.95;;;;;;;;;;5092018;28;20130;-71
2021/12/21 08:27:04;;;;;;;5.15;2.40;;;;;;;;;;5091873;28;20040;-70
2021/12/21 08:29:31;;;;;;;4.18;2.30;;;;;;;;;;5092069;28;20508;-72
2021/12/21 08:31:57;;;;;;;5.18;2.08;;;;;;;;;;5091196;28;20037;-72
2021/12/21 08:34:23;;;;;;;4.78;2.08;;;;;;;;;;5090507;28;20075;-72
2021/12/21 08:36:50;;;;;;;7.90;2.75;;;;;;;;;;5091917;28;20055;-72
2021/12/21 08:39:17;;;;;;;4.43;2.10;;;;;;;;;;5090940;28;20051;-73
2021/12/21 08:41:45;;;;;;;3.55;1.88;;;;;;;;;;5091206;28;20075;-73
2021/12/21 08:44:12;;;;;;;4.30;2.40;;;;;;;;;;5090758;28;20453;-71
2021/12/21 08:46:41;;;;;;;3.97;1.88;;;;;;;;;;5088934;28;20048;-71
2021/12/21 08:49:07;;;;;;;5.18;2.03;;;;;;;;;;5091551;28;20405;-71
2021/12/21 08:51:33;;;;;;;4.60;1.85;;;;;;;;;;5090522;28;20406;-72
2021/12/21 08:53:59;;;;;;;4.32;1.90;;;;;;;;;;5090790;28;20048;-71
2021/12/21 08:56:25;;;;;;;4.55;2.20;;;;;;;;;;5091648;28;20066;-71
2021/12/21 08:58:52;;;;;;;3.25;1.73;;;;;;;;;;5091305;28;20036;-73
2021/12/21 09:01:18;;;;;;;3.20;1.90;;;;;;;;;;5089917;28;20047;-72
2021/12/21 09:03:45;;;;;;;3.58;1.95;;;;;;;;;;5090793;28;20044;-72
2021/12/21 09:06:11;;;;;;;3.85;2.10;;;;;;;;;;5073218;28;20135;-72
2021/12/21 09:08:37;;;;;;;3.97;1.77;;;;;;;;;;5090902;28;20147;-71
2021/12/21 09:11:05;;;;;;;3.78;1.92;;;;;;;;;;5090974;28;20512;-73
2021/12/21 09:13:33;;;;;;;3.35;1.85;;;;;;;;;;5091241;28;20076;-71
2021/12/21 09:15:59;;;;;;;5.85;2.17;;;;;;;;;;5091314;28;20110;-71
2021/12/21 09:18:25;;;;;;;3.85;2.60;;;;;;;;;;5090316;28;20074;-73
2021/12/21 09:20:52;;;;;;;3.58;1.85;;;;;;;;;;5091469;28;20105;-73
2021/12/21 09:23:18;;;;;;;5.22;2.38;;;;;;;;;;5090285;28;20048;-72
2021/12/21 09:25:44;;;;;;;5.28;2.00;;;;;;;;;;5090360;28;20047;-71
2021/12/21 09:28:10;;;;;;;3.85;2.03;;;;;;;;;;5090333;28;20079;-72
2021/12/21 09:30:36;;;;;;;5.35;2.40;;;;;;;;;;5090854;28;20097;-71
2021/12/21 09:33:02;;;;;;;4.25;1.98;;;;;;;;;;5091076;28;20126;-74
2021/12/21 09:35:28;;;;;;;4.10;1.83;;;;;;;;;;5089211;28;20054;-75
2021/12/21 09:37:54;;;;;;;4.45;1.92;;;;;;;;;;5091340;28;20067;-74
2021/12/21 09:40:25;;;;;;;4.35;2.20;;;;;;;;;;5090967;28;20071;-72
2021/12/21 09:42:51;;;;;;;4.43;2.05;;;;;;;;;;5091340;28;20059;-72
2021/12/21 09:45:18;;;;;;;4.85;2.17;;;;;;;;;;5089980;28;20051;-72
2021/12/21 09:47:44;;;;;;;4.90;2.30;;;;;;;;;;5090644;28;20124;-75
2021/12/21 09:50:11;;;;;;;4.38;1.90;;;;;;;;;;5089581;28;20044;-72
2021/12/21 09:52:38;;;;;;;4.65;2.00;;;;;;;;;;5091061;28;20040;-73
2021/12/21 09:55:06;;;;;;;5.65;2.50;;;;;;;;;;5089782;28;20081;-71
2021/12/21 09:57:32;;;;;;;5.40;2.38;;;;;;;;;;5090722;28;20047;-76
2021/12/21 09:59:58;;;;;;;4.47;2.10;;;;;;;;;;5090488;28;20135;-73
2021/12/21 10:02:26;;;;;;;4.97;2.10;;;;;;;;;;5090504;28;20105;-74
2021/12/21 10:04:57;;;;;;;3.50;1.85;;;;;;;;;;5089163;28;20529;-73
2021/12/21 10:07:24;;;;;;;4.57;1.90;;;;;;;;;;5089244;28;20036;-71
2021/12/21 10:09:53;;;;;;;7.35;2.30;;;;;;;;;;5088854;28;20049;-74
2021/12/21 10:12:29;;;;;;;4.47;2.20;;;;;;;;;;5088348;28;20059;-76
2021/12/21 10:15:02;;;;;;;5.50;2.35;;;;;;;;;;5089824;28;20052;-75
2021/12/21 10:17:32;;;;;;;4.88;2.03;;;;;;;;;;5090051;28;20132;-75
2021/12/21 10:19:58;;;;;;;11.98;2.05;;;;;;;;;;5089057;28;20055;-75
2021/12/21 10:22:25;;;;;;;5.85;2.50;;;;;;;;;;5089152;28;20059;-75
2021/12/21 10:24:52;;;;;;;6.90;2.35;;;;;;;;;;5089783;28;20032;-76
2021/12/21 10:27:20;;;;;;;5.13;2.40;;;;;;;;;;5088722;28;20121;-74
2021/12/21 10:29:50;;;;;;;8.00;2.50;;;;;;;;;;5089479;28;20410;-75
2021/12/21 10:32:30;;;;;;;4.43;2.35;;;;;;;;;;5090150;28;20055;-73
2021/12/21 10:34:59;;;;;;;6.10;2.53;;;;;;;;;;5090271;28;20139;-70
2021/12/21 10:37:33;;;;;;;6.82;2.53;;;;;;;;;;5090106;28;20051;-74
2021/12/21 10:40:11;;;;;;;6.53;2.65;;;;;;;;;;5090505;28;20056;-73
2021/12/21 10:42:44;;;;;;;6.40;2.53;;;;;;;;;;5090161;28;20410;-73
2021/12/21 10:45:11;;;;;;;7.18;2.38;;;;;;;;;;5089510;28;20391;-73
2021/12/21 10:47:37;;;;;;;7.05;2.90;;;;;;;;;;5090347;28;20094;-72
2021/12/21 10:50:04;;;;;;;7.32;2.53;;;;;;;;;;5089402;28;20047;-74
2021/12/21 10:52:31;;;;;;;8.10;3.20;;;;;;;;;;5090308;28;20039;-72
2021/12/21 10:54:57;;;;;;;6.97;2.40;;;;;;;;;;5088365;28;20047;-72
2021/12/21 10:57:29;;;;;;;5.10;2.28;;;;;;;;;;5088018;28;20046;-72
2021/12/21 10:59:59;;;;;;;6.35;2.60;;;;;;;;;;5088110;28;20040;-76
2021/12/21 11:02:34;;;;;;;5.63;2.85;;;;;;;;;;5089582;28;20123;-73
2021/12/21 11:05:02;;;;;;;7.47;2.50;;;;;;;;;;5088972;28;20043;-73
2021/12/21 11:10:32;;;;;;;3.40;1.88;;;;;;;;;;5078183;28;20144;-73
2021/12/21 11:13:16;;;;;;;7.22;2.60;;;;;;;;;;5087825;28;20052;-72
2021/12/21 11:15:47;;;;;;;5.75;2.40;;;;;;;;;;5086507;28;20048;-72
2021/12/21 11:18:16;;;;;;;7.05;2.33;;;;;;;;;;5085688;28;20051;-72
2021/12/21 11:20:44;;;;;;;4.18;1.90;;;;;;;;;;5087260;28;20048;-72
2021/12/21 11:23:12;;;;;;;4.65;2.22;;;;;;;;;;5087467;28;20055;-73
2021/12/21 11:25:39;;;;;;;6.13;2.90;;;;;;;;;;5087006;28;20337;-72
2021/12/21 11:28:06;;;;;;;5.85;2.30;;;;;;;;;;5087046;28;20040;-72
2021/12/21 11:30:34;;;;;;;7.57;2.55;;;;;;;;;;5086207;28;20048;-72
2021/12/21 11:33:01;;;;;;;5.60;2.50;;;;;;;;;;5087422;28;20072;-72
2021/12/21 11:37:59;;;;;;;6.72;2.00;;;;;;;;;;5087293;28;20075;-72
2021/12/21 11:40:28;;;;;;;4.75;2.30;;;;;;;;;;5086373;28;20048;-73
2021/12/21 11:43:01;;;;;;;6.73;1.70;;;;;;;;;;5086059;28;20072;-72
2021/12/21 11:45:31;;;;;;;4.00;2.22;;;;;;;;;;5088695;28;20113;-72
2021/12/21 11:48:07;;;;;;;4.47;2.00;;;;;;;;;;5090457;28;20040;-72
2021/12/21 11:50:33;;;;;;;6.65;2.22;;;;;;;;;;5091794;28;20393;-73
2021/12/21 11:53:04;;;;;;;4.03;1.63;;;;;;;;;;5091703;28;20046;-73
2021/12/21 11:55:31;;;;;;;6.85;1.80;;;;;;;;;;5089959;28;20044;-73
2021/12/21 11:57:58;;;;;;;4.85;2.15;;;;;;;;;;5091502;28;20042;-73
2021/12/21 12:00:26;;;;;;;4.40;2.13;;;;;;;;;;5090037;28;20052;-73
2021/12/21 12:02:53;;;;;;;3.60;2.00;;;;;;;;;;5089474;28;20052;-73
2021/12/21 12:05:30;;;;;;;5.38;1.98;;;;;;;;;;5092218;28;20039;-73
2021/12/21 12:08:00;;;;;;;4.80;2.10;;;;;;;;;;5091136;28;20076;-73
2021/12/21 12:10:27;;;;;;;4.18;1.92;;;;;;;;;;5090810;28;20048;-72
2021/12/21 12:12:54;;;;;;;5.03;1.80;;;;;;;;;;5090176;28;20101;-72
2021/12/21 12:15:20;;;;;;;3.85;1.77;;;;;;;;;;5090260;28;20044;-72
2021/12/21 12:17:47;;;;;;;5.63;1.75;;;;;;;;;;5090186;28;20130;-72
2021/12/21 12:20:14;;;;;;;3.80;1.67;;;;;;;;;;5089943;28;20052;-72
2021/12/21 12:22:45;;;;;;;5.00;1.88;;;;;;;;;;5090412;28;20036;-72
2021/12/21 12:25:29;;;;;;;19.88;2.92;;;;;;;;;;5090529;28;20048;-75
2021/12/21 12:27:56;;;;;;;10.65;2.22;;;;;;;;;;5089088;28;20048;-74
2021/12/21 12:30:26;;;;;;;7.45;2.10;;;;;;;;;;5090836;28;20055;-74
2021/12/21 12:32:59;;;;;;;9.27;1.88;;;;;;;;;;5088010;28;20093;-74
2021/12/21 12:35:26;;;;;;;6.32;1.83;;;;;;;;;;5090643;28;20433;-74
2021/12/21 12:37:54;;;;;;;9.90;2.08;;;;;;;;;;5090206;28;20709;-74
2021/12/21 12:40:24;;;;;;;9.38;1.95;;;;;;;;;;5087066;28;20089;-74
2021/12/21 12:42:57;;;;;;;7.95;2.10;;;;;;;;;;5090483;28;20032;-74
2021/12/21 12:45:23;;;;;;;10.23;1.85;;;;;;;;;;5090448;28;20036;-74
2021/12/21 12:47:52;;;;;;;3.90;2.28;;;;;;;;;;5090092;28;20040;-75
2021/12/21 12:50:21;;;;;;;7.20;2.13;;;;;;;;;;5071159;28;20079;-76
2021/12/21 12:52:54;;;;;;;8.98;1.55;;;;;;;;;;5089582;28;20292;-75
2021/12/21 12:55:20;;;;;;;4.25;1.50;;;;;;;;;;5071411;28;20054;-75
2021/12/21 12:58:00;;;;;;;3.38;1.60;;;;;;;;;;5086894;28;20127;-75
2021/12/21 13:00:33;;;;;;;4.25;1.70;;;;;;;;;;5103997;28;20226;-75
2021/12/21 13:03:01;;;;;;;3.83;1.63;;;;;;;;;;5089394;28;20414;-75
2021/12/21 13:05:31;;;;;;;4.88;1.90;;;;;;;;;;5090290;28;20465;-76
2021/12/21 13:08:06;;;;;;;4.00;1.63;;;;;;;;;;5089974;28;20048;-76
2021/12/21 13:10:32;;;;;;;7.82;2.28;;;;;;;;;;5069361;28;20059;-76
2021/12/21 13:12:58;;;;;;;3.88;1.50;;;;;;;;;;5089263;28;20055;-76
2021/12/21 13:15:35;;;;;;;5.90;1.60;;;;;;;;;;5089908;28;20040;-76
2021/12/21 13:18:03;;;;;;;4.47;2.20;;;;;;;;;;5089677;28;20047;-73
2021/12/21 13:20:30;;;;;;;4.13;1.45;;;;;;;;;;5088501;28;20048;-72
2021/12/21 13:22:56;;;;;;;5.38;1.70;;;;;;;;;;5088992;28;20044;-73
2021/12/21 13:25:22;;;;;;;3.60;1.50;;;;;;;;;;5089324;28;20047;-72
2021/12/21 13:27:48;;;;;;;5.65;1.50;;;;;;;;;;5087318;28;20558;-74
2021/12/21 13:30:18;;;;;;;7.00;2.08;;;;;;;;;;5071641;28;20040;-74
2021/12/21 13:32:44;;;;;;;3.53;1.25;;;;;;;;;;5071156;28;20409;-74
2021/12/21 13:35:15;;;;;;;5.18;1.67;;;;;;;;;;5089392;28;20472;-75
2021/12/21 13:37:41;;;;;;;3.00;1.45;;;;;;;;;;5086287;28;20123;-73
2021/12/21 13:40:07;;;;;;;4.88;1.60;;;;;;;;;;5087563;28;20055;-74
2021/12/21 13:42:34;;;;;;;4.07;1.58;;;;;;;;;;5089161;28;20051;-75
2021/12/21 13:45:05;;;;;;;10.63;1.85;;;;;;;;;;5070749;28;20132;-70
2021/12/21 13:47:37;;;;;;;7.22;1.85;;;;;;;;;;5087438;28;20048;-71
2021/12/21 13:50:04;;;;;;;3.88;1.33;;;;;;;;;;5089289;28;20100;-72
2021/12/21 13:52:41;;;;;;;5.13;1.30;;;;;;;;;;5088996;28;20051;-70
2021/12/21 13:55:08;;;;;;;5.72;1.98;;;;;;;;;;5086534;28;20393;-72
2021/12/21 13:57:35;;;;;;;4.57;1.27;;;;;;;;;;5088761;28;20098;-73
2021/12/21 14:00:07;;;;;;;8.38;1.35;;;;;;;;;;5089184;28;20121;-73
2021/12/21 14:02:35;;;;;;;2.83;1.27;;;;;;;;;;5089157;28;20044;-73
2021/12/21 14:05:06;;;;;;;5.28;1.35;;;;;;;;;;5088074;28;20043;-77
2021/12/21 14:07:34;;;;;;;11.85;1.85;;;;;;;;;;5089258;28;20051;-73
2021/12/21 14:10:01;;;;;;;4.88;1.60;;;;;;;;;;5088708;28;20150;-72
2021/12/21 14:12:27;;;;;;;3.58;1.42;;;;;;;;;;5088757;28;20056;-73
2021/12/21 14:14:54;;;;;;;3.60;1.42;;;;;;;;;;5088539;28;20055;-75
2021/12/21 14:17:20;;;;;;;5.90;1.30;;;;;;;;;;5088873;28;20036;-72
2021/12/21 14:19:54;;;;;;;5.18;1.70;;;;;;;;;;5086730;28;20139;-72
2021/12/21 14:22:21;;;;;;;5.88;1.77;;;;;;;;;;5086864;28;20502;-72
2021/12/21 14:24:49;;;;;;;2.95;1.27;;;;;;;;;;5087885;28;20058;-72
2021/12/21 14:27:16;;;;;;;7.90;1.63;;;;;;;;;;5089081;28;20055;-72
2021/12/21 14:29:43;;;;;;;5.90;1.70;;;;;;;;;;5088473;28;20533;-72
2021/12/21 14:34:40;;;;;;;5.93;1.60;;;;;;;;;;5087715;28;20375;-72
2021/12/21 14:37:07;;;;;;;2.25;1.20;;;;;;;;;;5087141;28;20063;-72
2021/12/21 14:39:33;;;;;;;3.40;1.55;;;;;;;;;;5084664;28;20524;-72
2021/12/21 14:42:01;;;;;;;3.88;1.50;;;;;;;;;;5087263;28;20088;-72
2021/12/21 14:44:28;;;;;;;3.70;1.58;;;;;;;;;;5086039;28;20046;-73
2021/12/21 14:46:56;;;;;;;3.75;1.33;;;;;;;;;;5088194;28;20086;-72
2021/12/21 14:49:28;;;;;;;3.55;1.52;;;;;;;;;;5087916;28;20490;-72
2021/12/21 14:51:57;;;;;;;4.22;1.50;;;;;;;;;;5086263;28;20478;-72
2021/12/21 14:54:36;;;;;;;;;;;;;;;;;;5087702;28;20105;-72
2021/12/21 14:57:04;;;;;;;3.58;1.08;;;;;;;;;;5085100;28;19967;-72
2021/12/21 14:59:34;;;;;;;3.70;1.30;;;;;;;;;;5085377;28;20119;-72
2021/12/21 15:02:05;;;;;;;2.80;1.13;;;;;;;;;;5087349;28;20052;-72
2021/12/21 15:04:32;;;;;;;3.83;1.50;;;;;;;;;;5085170;28;20070;-72
2021/12/21 15:06:58;;;;;;;3.72;1.40;;;;;;;;;;5087341;28;20062;-72
2021/12/21 15:09:24;;;;;;;3.72;1.58;;;;;;;;;;5086482;28;20048;-72
2021/12/21 15:11:51;;;;;;;3.33;1.20;;;;;;;;;;5085595;28;20050;-72
2021/12/21 15:14:17;;;;;;;2.88;1.20;;;;;;;;;;5087324;28;20121;-72
2021/12/21 15:16:44;;;;;;;3.50;1.20;;;;;;;;;;5085732;28;20594;-72
2021/12/21 15:19:10;;;;;;;3.45;1.42;;;;;;;;;;5086079;28;20405;-73
2021/12/21 15:21:36;;;;;;;1.75;0.90;;;;;;;;;;5087129;28;20573;-73
2021/12/21 15:24:02;;;;;;;2.75;1.25;;;;;;;;;;5068984;28;20051;-73
2021/12/21 15:26:28;;;;;;;3.03;1.27;;;;;;;;;;5085539;28;20136;-73
2021/12/21 15:28:54;;;;;;;2.85;1.30;;;;;;;;;;5086530;28;20563;-73
2021/12/21 15:31:20;;;;;;;3.40;1.27;;;;;;;;;;5087530;28;20496;-72
2021/12/21 15:33:46;;;;;;;4.00;1.40;;;;;;;;;;5087314;28;20093;-72
2021/12/21 15:36:12;;;;;;;4.38;1.30;;;;;;;;;;5086350;28;20506;-72
2021/12/21 15:38:39;;;;;;;2.92;1.40;;;;;;;;;;5087394;28;20528;-72
2021/12/21 15:41:05;;;;;;;2.92;1.33;;;;;;;;;;5085514;28;20040;-72
2021/12/21 15:43:38;;;;;;;3.33;1.20;;;;;;;;;;5069370;28;20036;-72
2021/12/21 15:46:04;;;;;;;4.45;1.27;;;;;;;;;;5084587;28;20044;-72
2021/12/21 15:48:31;;;;;;;3.70;1.35;;;;;;;;;;5086580;28;20051;-72
2021/12/21 15:50:57;;;;;;;3.55;1.73;;;;;;;;;;5086694;28;20055;-72
2021/12/21 15:53:24;;;;;;;3.08;1.38;;;;;;;;;;5085654;28;20173;-72
2021/12/21 15:55:51;;;;;;;3.30;1.00;;;;;;;;;;5087129;28;20075;-72